Barrow, Argentina
Current Conditions -  °F | °C
As of 1:00 PM on Thursday 27 Nov 2014 (Local Time) from SAZM Reporting Station
Clear Clear  
Wind Chill: 68°   Ceiling: Unl
Heat Index: 68°   Visibility: 6mi
Dew Point: 54°   Wind: 15mph
Humidity: 60%   Direction: 140°SE
Pressure: 30"   Gusts: NA
Location:  38.31°S, 60.13°W
Report Text: SAZM 271600Z 14013KT CAVOK 20/12 Q1016
Loading
Personal Weather Stations






























Interactive Weather Map New forecast layout! Learn more

10-Day Weather Forecast

Advertisements
Track Severe Weather on mobile